sensor_id;sensor_type;location;lat;lon;timestamp;temperature;humidity
10419;DHT22;5256;48.728;9.140;2022-09-14T00:01:24;18.70;99.90
10419;DHT22;5256;48.728;9.140;2022-09-14T00:04:19;18.70;99.90
10419;DHT22;5256;48.728;9.140;2022-09-14T00:06:45;18.70;99.90
10419;DHT22;5256;48.728;9.140;2022-09-14T00:09:19;18.80;99.90
10419;DHT22;5256;48.728;9.140;2022-09-14T00:11:45;18.90;99.90
10419;DHT22;5256;48.728;9.140;2022-09-14T00:14:11;18.90;99.90
10419;DHT22;5256;48.728;9.140;2022-09-14T00:16:39;18.80;99.90
10419;DHT22;5256;48.728;9.140;2022-09-14T00:19:15;18.70;99.90
10419;DHT22;5256;48.728;9.140;2022-09-14T00:21:41;18.60;99.90
10419;DHT22;5256;48.728;9.140;2022-09-14T00:24:08;18.60;99.90
10419;DHT22;5256;48.728;9.140;2022-09-14T00:26:35;18.50;99.90
10419;DHT22;5256;48.728;9.140;2022-09-14T00:29:03;18.50;99.90
10419;DHT22;5256;48.728;9.140;2022-09-14T00:31:30;18.40;99.90
10419;DHT22;5256;48.728;9.140;2022-09-14T00:33:56;18.50;99.90
10419;DHT22;5256;48.728;9.140;2022-09-14T00:36:26;18.50;99.90
10419;DHT22;5256;48.728;9.140;2022-09-14T00:38:53;18.70;99.90
10419;DHT22;5256;48.728;9.140;2022-09-14T00:41:25;18.70;99.90
10419;DHT22;5256;48.728;9.140;2022-09-14T00:46:31;18.60;99.90
10419;DHT22;5256;48.728;9.140;2022-09-14T00:48:59;18.60;99.90
10419;DHT22;5256;48.728;9.140;2022-09-14T00:51:27;18.60;99.90
10419;DHT22;5256;48.728;9.140;2022-09-14T00:53:54;18.70;99.90
10419;DHT22;5256;48.728;9.140;2022-09-14T00:56:20;18.60;99.90
10419;DHT22;5256;48.728;9.140;2022-09-14T00:58:49;18.60;99.90
10419;DHT22;5256;48.728;9.140;2022-09-14T01:01:15;18.50;99.90
10419;DHT22;5256;48.728;9.140;2022-09-14T01:03:41;18.50;99.90
10419;DHT22;5256;48.728;9.140;2022-09-14T01:12:00;18.30;99.90
10419;DHT22;5256;48.728;9.140;2022-09-14T01:14:40;18.30;99.90
10419;DHT22;5256;48.728;9.140;2022-09-14T01:19:59;18.20;99.90
10419;DHT22;5256;48.728;9.140;2022-09-14T01:22:36;18.30;99.90
10419;DHT22;5256;48.728;9.140;2022-09-14T01:25:19;18.30;99.90
10419;DHT22;5256;48.728;9.140;2022-09-14T01:27:54;18.20;99.90
10419;DHT22;5256;48.728;9.140;2022-09-14T01:30:21;17.50;99.90
10419;DHT22;5256;48.728;9.140;2022-09-14T01:32:56;17.10;99.90
10419;DHT22;5256;48.728;9.140;2022-09-14T01:35:29;16.90;99.90
10419;DHT22;5256;48.728;9.140;2022-09-14T01:38:03;16.90;99.90
10419;DHT22;5256;48.728;9.140;2022-09-14T01:40:43;16.90;99.90
10419;DHT22;5256;48.728;9.140;2022-09-14T01:43:35;17.00;99.90
10419;DHT22;5256;48.728;9.140;2022-09-14T01:46:27;17.10;99.90
10419;DHT22;5256;48.728;9.140;2022-09-14T01:54:27;17.20;99.90
10419;DHT22;5256;48.728;9.140;2022-09-14T01:57:05;17.20;99.90
10419;DHT22;5256;48.728;9.140;2022-09-14T01:59:36;17.20;99.90
10419;DHT22;5256;48.728;9.140;2022-09-14T02:02:08;17.20;99.90
10419;DHT22;5256;48.728;9.140;2022-09-14T02:07:12;17.10;99.90
10419;DHT22;5256;48.728;9.140;2022-09-14T02:09:37;17.20;99.90
10419;DHT22;5256;48.728;9.140;2022-09-14T02:12:03;17.20;99.90
10419;DHT22;5256;48.728;9.140;2022-09-14T02:14:29;17.20;99.90
10419;DHT22;5256;48.728;9.140;2022-09-14T02:16:56;17.10;99.90
10419;DHT22;5256;48.728;9.140;2022-09-14T02:19:22;17.10;99.90
10419;DHT22;5256;48.728;9.140;2022-09-14T02:21:49;17.20;99.90
10419;DHT22;5256;48.728;9.140;2022-09-14T02:24:15;17.10;99.90
10419;DHT22;5256;48.728;9.140;2022-09-14T02:26:41;17.10;99.90
10419;DHT22;5256;48.728;9.140;2022-09-14T02:29:07;17.10;99.90
10419;DHT22;5256;48.728;9.140;2022-09-14T02:37:16;17.10;99.90
10419;DHT22;5256;48.728;9.140;2022-09-14T02:43:49;17.10;99.90
10419;DHT22;5256;48.728;9.140;2022-09-14T02:51:25;17.10;99.90
10419;DHT22;5256;48.728;9.140;2022-09-14T02:54:00;17.00;99.90
10419;DHT22;5256;48.728;9.140;2022-09-14T02:56:28;17.00;99.90
10419;DHT22;5256;48.728;9.140;2022-09-14T02:58:54;17.00;99.90
10419;DHT22;5256;48.728;9.140;2022-09-14T03:01:21;16.90;99.90
10419;DHT22;5256;48.728;9.140;2022-09-14T03:03:47;16.90;99.90
10419;DHT22;5256;48.728;9.140;2022-09-14T03:06:13;16.90;99.90
10419;DHT22;5256;48.728;9.140;2022-09-14T03:08:39;16.80;99.90
10419;DHT22;5256;48.728;9.140;2022-09-14T03:11:05;16.80;99.90
10419;DHT22;5256;48.728;9.140;2022-09-14T03:13:31;16.80;99.90
10419;DHT22;5256;48.728;9.140;2022-09-14T03:16:06;16.80;99.90
10419;DHT22;5256;48.728;9.140;2022-09-14T03:18:33;16.90;99.90
10419;DHT22;5256;48.728;9.140;2022-09-14T03:21:06;16.90;99.90
10419;DHT22;5256;48.728;9.140;2022-09-14T03:23:44;16.90;99.90
10419;DHT22;5256;48.728;9.140;2022-09-14T03:26:12;16.90;99.90
10419;DHT22;5256;48.728;9.140;2022-09-14T03:28:38;16.80;99.90
10419;DHT22;5256;48.728;9.140;2022-09-14T03:31:06;16.80;99.90
10419;DHT22;5256;48.728;9.140;2022-09-14T03:33:31;16.70;99.90
10419;DHT22;5256;48.728;9.140;2022-09-14T03:35:57;16.70;99.90
10419;DHT22;5256;48.728;9.140;2022-09-14T03:38:23;16.60;99.90
10419;DHT22;5256;48.728;9.140;2022-09-14T03:40:51;16.60;99.90
10419;DHT22;5256;48.728;9.140;2022-09-14T03:43:17;16.60;99.90
10419;DHT22;5256;48.728;9.140;2022-09-14T03:45:43;16.60;99.90
10419;DHT22;5256;48.728;9.140;2022-09-14T03:48:09;16.70;99.90
10419;DHT22;5256;48.728;9.140;2022-09-14T03:50:37;16.70;99.90
10419;DHT22;5256;48.728;9.140;2022-09-14T03:53:02;16.70;99.90
10419;DHT22;5256;48.728;9.140;2022-09-14T03:55:29;16.70;99.90
10419;DHT22;5256;48.728;9.140;2022-09-14T03:57:55;16.70;99.90
10419;DHT22;5256;48.728;9.140;2022-09-14T04:00:21;16.70;99.90
10419;DHT22;5256;48.728;9.140;2022-09-14T04:02:47;16.80;99.90
10419;DHT22;5256;48.728;9.140;2022-09-14T04:05:12;16.80;99.90
10419;DHT22;5256;48.728;9.140;2022-09-14T04:07:38;16.80;99.90
10419;DHT22;5256;48.728;9.140;2022-09-14T04:10:04;16.80;99.90
10419;DHT22;5256;48.728;9.140;2022-09-14T04:12:35;16.70;99.90
10419;DHT22;5256;48.728;9.140;2022-09-14T04:15:00;16.70;99.90
10419;DHT22;5256;48.728;9.140;2022-09-14T04:17:27;16.70;99.90
10419;DHT22;5256;48.728;9.140;2022-09-14T04:19:53;16.70;99.90
10419;DHT22;5256;48.728;9.140;2022-09-14T04:22:18;16.70;99.90
10419;DHT22;5256;48.728;9.140;2022-09-14T04:24:44;16.70;99.90
10419;DHT22;5256;48.728;9.140;2022-09-14T04:27:09;16.70;99.90
10419;DHT22;5256;48.728;9.140;2022-09-14T04:29:35;16.70;99.90
10419;DHT22;5256;48.728;9.140;2022-09-14T04:32:01;16.70;99.90
10419;DHT22;5256;48.728;9.140;2022-09-14T04:34:27;16.70;99.90
10419;DHT22;5256;48.728;9.140;2022-09-14T04:36:52;16.70;99.90
10419;DHT22;5256;48.728;9.140;2022-09-14T04:39:18;16.70;99.90
10419;DHT22;5256;48.728;9.140;2022-09-14T04:41:44;16.70;99.90
10419;DHT22;5256;48.728;9.140;2022-09-14T04:44:10;16.70;99.90
10419;DHT22;5256;48.728;9.140;2022-09-14T04:46:36;16.70;99.90
10419;DHT22;5256;48.728;9.140;2022-09-14T04:49:04;16.60;99.90
10419;DHT22;5256;48.728;9.140;2022-09-14T04:51:32;16.60;99.90
10419;DHT22;5256;48.728;9.140;2022-09-14T04:53:59;16.70;99.90
10419;DHT22;5256;48.728;9.140;2022-09-14T04:56:27;16.70;99.90
10419;DHT22;5256;48.728;9.140;2022-09-14T04:58:56;16.70;99.90
10419;DHT22;5256;48.728;9.140;2022-09-14T05:01:27;16.70;99.90
10419;DHT22;5256;48.728;9.140;2022-09-14T05:03:53;16.80;99.90
10419;DHT22;5256;48.728;9.140;2022-09-14T05:06:22;16.80;99.90
10419;DHT22;5256;48.728;9.140;2022-09-14T05:08:49;16.80;99.90
10419;DHT22;5256;48.728;9.140;2022-09-14T05:11:20;16.90;99.90
10419;DHT22;5256;48.728;9.140;2022-09-14T05:13:46;17.00;99.90
10419;DHT22;5256;48.728;9.140;2022-09-14T05:16:20;17.10;99.90
10419;DHT22;5256;48.728;9.140;2022-09-14T05:18:47;17.10;99.90
10419;DHT22;5256;48.728;9.140;2022-09-14T05:21:18;17.20;99.90
10419;DHT22;5256;48.728;9.140;2022-09-14T05:23:44;17.30;99.90
10419;DHT22;5256;48.728;9.140;2022-09-14T05:26:10;17.40;99.90
10419;DHT22;5256;48.728;9.140;2022-09-14T05:28:36;17.40;99.90
10419;DHT22;5256;48.728;9.140;2022-09-14T05:31:07;17.50;99.90
10419;DHT22;5256;48.728;9.140;2022-09-14T05:33:33;17.60;99.90
10419;DHT22;5256;48.728;9.140;2022-09-14T05:36:04;17.70;99.90
10419;DHT22;5256;48.728;9.140;2022-09-14T05:38:32;17.70;99.90
10419;DHT22;5256;48.728;9.140;2022-09-14T05:40:58;17.80;99.90
10419;DHT22;5256;48.728;9.140;2022-09-14T05:43:24;17.80;99.90
10419;DHT22;5256;48.728;9.140;2022-09-14T05:45:50;17.90;99.90
10419;DHT22;5256;48.728;9.140;2022-09-14T05:48:16;17.90;99.90
10419;DHT22;5256;48.728;9.140;2022-09-14T05:50:42;18.00;99.90
10419;DHT22;5256;48.728;9.140;2022-09-14T05:53:08;18.00;99.90
10419;DHT22;5256;48.728;9.140;2022-09-14T05:55:33;18.10;99.90
10419;DHT22;5256;48.728;9.140;2022-09-14T05:57:59;18.10;99.90
10419;DHT22;5256;48.728;9.140;2022-09-14T06:00:24;18.10;99.90
10419;DHT22;5256;48.728;9.140;2022-09-14T06:02:53;18.20;99.90
10419;DHT22;5256;48.728;9.140;2022-09-14T06:05:20;18.20;99.90
10419;DHT22;5256;48.728;9.140;2022-09-14T06:07:50;18.30;99.90
10419;DHT22;5256;48.728;9.140;2022-09-14T06:10:17;18.30;99.90
10419;DHT22;5256;48.728;9.140;2022-09-14T06:12:43;18.40;99.90
10419;DHT22;5256;48.728;9.140;2022-09-14T06:15:09;18.50;99.90
10419;DHT22;5256;48.728;9.140;2022-09-14T06:17:35;18.50;99.90
10419;DHT22;5256;48.728;9.140;2022-09-14T06:20:02;18.60;99.90
10419;DHT22;5256;48.728;9.140;2022-09-14T06:22:27;18.70;99.90
10419;DHT22;5256;48.728;9.140;2022-09-14T06:24:53;18.70;99.90
10419;DHT22;5256;48.728;9.140;2022-09-14T06:27:18;18.70;99.90
10419;DHT22;5256;48.728;9.140;2022-09-14T06:29:44;18.80;99.90
10419;DHT22;5256;48.728;9.140;2022-09-14T06:32:09;18.80;99.90
10419;DHT22;5256;48.728;9.140;2022-09-14T06:34:35;18.90;99.90
10419;DHT22;5256;48.728;9.140;2022-09-14T06:37:00;19.00;99.90
10419;DHT22;5256;48.728;9.140;2022-09-14T06:39:26;19.10;99.90
10419;DHT22;5256;48.728;9.140;2022-09-14T06:41:52;19.20;99.90
10419;DHT22;5256;48.728;9.140;2022-09-14T06:44:18;19.30;99.90
10419;DHT22;5256;48.728;9.140;2022-09-14T06:46:44;19.20;99.90
10419;DHT22;5256;48.728;9.140;2022-09-14T06:49:12;19.20;99.90
10419;DHT22;5256;48.728;9.140;2022-09-14T06:51:39;19.20;99.90
10419;DHT22;5256;48.728;9.140;2022-09-14T06:54:05;19.20;99.90
10419;DHT22;5256;48.728;9.140;2022-09-14T06:56:39;19.30;99.90
10419;DHT22;5256;48.728;9.140;2022-09-14T06:59:10;19.30;99.90
10419;DHT22;5256;48.728;9.140;2022-09-14T07:01:37;19.40;99.90
10419;DHT22;5256;48.728;9.140;2022-09-14T07:04:03;19.50;99.90
10419;DHT22;5256;48.728;9.140;2022-09-14T07:06:30;19.60;99.90
10419;DHT22;5256;48.728;9.140;2022-09-14T07:08:56;19.80;99.90
10419;DHT22;5256;48.728;9.140;2022-09-14T07:11:24;19.90;99.90
10419;DHT22;5256;48.728;9.140;2022-09-14T07:13:52;19.90;99.90
10419;DHT22;5256;48.728;9.140;2022-09-14T07:16:19;20.10;99.90
10419;DHT22;5256;48.728;9.140;2022-09-14T07:18:46;20.20;99.90
10419;DHT22;5256;48.728;9.140;2022-09-14T07:21:14;20.50;99.90
10419;DHT22;5256;48.728;9.140;2022-09-14T07:23:41;20.70;99.90
10419;DHT22;5256;48.728;9.140;2022-09-14T07:26:12;20.90;99.90
10419;DHT22;5256;48.728;9.140;2022-09-14T07:28:39;21.00;99.90
10419;DHT22;5256;48.728;9.140;2022-09-14T07:31:19;21.00;99.90
10419;DHT22;5256;48.728;9.140;2022-09-14T07:33:46;20.90;99.90
10419;DHT22;5256;48.728;9.140;2022-09-14T07:36:12;21.00;99.90
10419;DHT22;5256;48.728;9.140;2022-09-14T07:38:38;21.20;99.90
10419;DHT22;5256;48.728;9.140;2022-09-14T07:41:03;21.20;99.90
10419;DHT22;5256;48.728;9.140;2022-09-14T07:43:29;21.10;99.90
10419;DHT22;5256;48.728;9.140;2022-09-14T07:45:55;21.20;99.90
10419;DHT22;5256;48.728;9.140;2022-09-14T07:48:21;21.60;99.90
10419;DHT22;5256;48.728;9.140;2022-09-14T07:50:57;21.80;99.90
10419;DHT22;5256;48.728;9.140;2022-09-14T07:53:23;22.10;99.90
10419;DHT22;5256;48.728;9.140;2022-09-14T07:55:48;22.30;99.90
10419;DHT22;5256;48.728;9.140;2022-09-14T07:58:14;22.60;99.90
10419;DHT22;5256;48.728;9.140;2022-09-14T08:00:39;22.70;99.90
10419;DHT22;5256;48.728;9.140;2022-09-14T08:03:05;22.60;99.90
10419;DHT22;5256;48.728;9.140;2022-09-14T08:05:30;22.50;99.90
10419;DHT22;5256;48.728;9.140;2022-09-14T08:07:56;22.70;99.90
10419;DHT22;5256;48.728;9.140;2022-09-14T08:10:22;23.10;99.90
10419;DHT22;5256;48.728;9.140;2022-09-14T08:12:52;23.50;99.90
10419;DHT22;5256;48.728;9.140;2022-09-14T08:15:19;23.60;99.90
10419;DHT22;5256;48.728;9.140;2022-09-14T08:17:46;23.80;99.90
10419;DHT22;5256;48.728;9.140;2022-09-14T08:20:12;23.90;99.90
10419;DHT22;5256;48.728;9.140;2022-09-14T08:22:38;23.80;99.90
10419;DHT22;5256;48.728;9.140;2022-09-14T08:25:04;23.80;99.90
10419;DHT22;5256;48.728;9.140;2022-09-14T08:27:29;23.60;99.90
10419;DHT22;5256;48.728;9.140;2022-09-14T08:29:55;23.20;99.90
10419;DHT22;5256;48.728;9.140;2022-09-14T08:32:21;23.10;99.90
10419;DHT22;5256;48.728;9.140;2022-09-14T08:34:46;23.00;99.90
10419;DHT22;5256;48.728;9.140;2022-09-14T08:37:12;23.20;99.90
10419;DHT22;5256;48.728;9.140;2022-09-14T08:39:39;23.20;99.90
10419;DHT22;5256;48.728;9.140;2022-09-14T08:42:13;23.00;99.90
10419;DHT22;5256;48.728;9.140;2022-09-14T08:44:49;22.80;99.90
10419;DHT22;5256;48.728;9.140;2022-09-14T08:47:20;22.50;99.90
10419;DHT22;5256;48.728;9.140;2022-09-14T08:49:56;22.30;99.90
10419;DHT22;5256;48.728;9.140;2022-09-14T08:58:20;22.20;99.90
10419;DHT22;5256;48.728;9.140;2022-09-14T09:00:53;22.20;99.90
10419;DHT22;5256;48.728;9.140;2022-09-14T09:05:57;22.40;99.90
10419;DHT22;5256;48.728;9.140;2022-09-14T09:10:53;23.10;99.90
10419;DHT22;5256;48.728;9.140;2022-09-14T09:13:21;23.40;99.90
10419;DHT22;5256;48.728;9.140;2022-09-14T09:15:50;23.90;99.90
10419;DHT22;5256;48.728;9.140;2022-09-14T09:20:58;24.20;99.90
10419;DHT22;5256;48.728;9.140;2022-09-14T09:23:28;24.50;99.90
10419;DHT22;5256;48.728;9.140;2022-09-14T09:26:04;24.70;99.90
10419;DHT22;5256;48.728;9.140;2022-09-14T09:28:31;24.40;99.90
10419;DHT22;5256;48.728;9.140;2022-09-14T09:31:01;24.10;99.90
10419;DHT22;5256;48.728;9.140;2022-09-14T09:33:29;23.90;99.90
10419;DHT22;5256;48.728;9.140;2022-09-14T09:35:55;23.90;99.90
10419;DHT22;5256;48.728;9.140;2022-09-14T09:38:23;23.90;99.90
10419;DHT22;5256;48.728;9.140;2022-09-14T09:41:01;24.00;99.90
10419;DHT22;5256;48.728;9.140;2022-09-14T09:43:29;24.10;99.90
10419;DHT22;5256;48.728;9.140;2022-09-14T09:46:00;23.90;99.90
10419;DHT22;5256;48.728;9.140;2022-09-14T09:48:40;23.90;99.90
10419;DHT22;5256;48.728;9.140;2022-09-14T09:51:24;23.80;99.90
10419;DHT22;5256;48.728;9.140;2022-09-14T09:53:53;23.80;99.90
10419;DHT22;5256;48.728;9.140;2022-09-14T09:56:25;23.80;99.90
10419;DHT22;5256;48.728;9.140;2022-09-14T09:58:51;23.90;99.90
10419;DHT22;5256;48.728;9.140;2022-09-14T10:01:29;23.90;99.90
10419;DHT22;5256;48.728;9.140;2022-09-14T10:06:28;24.20;99.90
10419;DHT22;5256;48.728;9.140;2022-09-14T10:08:55;24.40;99.90
10419;DHT22;5256;48.728;9.140;2022-09-14T10:11:33;24.40;99.90
10419;DHT22;5256;48.728;9.140;2022-09-14T10:14:01;24.50;99.90
10419;DHT22;5256;48.728;9.140;2022-09-14T10:16:35;24.60;99.90
10419;DHT22;5256;48.728;9.140;2022-09-14T10:19:02;24.60;99.90
10419;DHT22;5256;48.728;9.140;2022-09-14T10:21:28;24.60;99.90
10419;DHT22;5256;48.728;9.140;2022-09-14T10:24:22;24.60;99.90
10419;DHT22;5256;48.728;9.140;2022-09-14T10:26:47;24.50;99.90
10419;DHT22;5256;48.728;9.140;2022-09-14T10:29:37;24.50;99.90
10419;DHT22;5256;48.728;9.140;2022-09-14T10:32:18;24.40;99.90
10419;DHT22;5256;48.728;9.140;2022-09-14T10:34:45;24.50;99.90
10419;DHT22;5256;48.728;9.140;2022-09-14T10:37:25;24.70;99.90
10419;DHT22;5256;48.728;9.140;2022-09-14T10:40:10;24.90;99.90
10419;DHT22;5256;48.728;9.140;2022-09-14T10:50:42;25.20;99.90
10419;DHT22;5256;48.728;9.140;2022-09-14T11:01:41;25.20;99.90
10419;DHT22;5256;48.728;9.140;2022-09-14T11:07:09;25.50;99.90
10419;DHT22;5256;48.728;9.140;2022-09-14T11:10:04;25.50;99.90
10419;DHT22;5256;48.728;9.140;2022-09-14T11:12:50;25.50;99.90
10419;DHT22;5256;48.728;9.140;2022-09-14T11:23:18;25.80;99.90
10419;DHT22;5256;48.728;9.140;2022-09-14T11:28:45;25.50;99.90
10419;DHT22;5256;48.728;9.140;2022-09-14T11:31:22;25.60;99.90
10419;DHT22;5256;48.728;9.140;2022-09-14T11:34:04;25.70;99.90
10419;DHT22;5256;48.728;9.140;2022-09-14T11:36:40;25.50;99.90
10419;DHT22;5256;48.728;9.140;2022-09-14T11:39:19;25.40;99.90
10419;DHT22;5256;48.728;9.140;2022-09-14T11:41:51;25.50;99.90
10419;DHT22;5256;48.728;9.140;2022-09-14T11:44:27;25.60;99.90
10419;DHT22;5256;48.728;9.140;2022-09-14T11:52:25;25.40;99.90
10419;DHT22;5256;48.728;9.140;2022-09-14T11:54:52;25.30;99.90
10419;DHT22;5256;48.728;9.140;2022-09-14T11:57:20;25.30;99.90
10419;DHT22;5256;48.728;9.140;2022-09-14T11:59:50;25.20;99.90
10419;DHT22;5256;48.728;9.140;2022-09-14T12:10:18;25.20;99.90
10419;DHT22;5256;48.728;9.140;2022-09-14T12:12:54;25.10;99.90
10419;DHT22;5256;48.728;9.140;2022-09-14T12:15:31;25.20;99.90
10419;DHT22;5256;48.728;9.140;2022-09-14T12:23:26;25.50;99.90
10419;DHT22;5256;48.728;9.140;2022-09-14T12:36:54;24.80;99.90
10419;DHT22;5256;48.728;9.140;2022-09-14T12:49:52;22.50;99.90
10419;DHT22;5256;48.728;9.140;2022-09-14T12:52:33;22.10;99.90
10419;DHT22;5256;48.728;9.140;2022-09-14T12:55:12;21.70;99.90
10419;DHT22;5256;48.728;9.140;2022-09-14T12:58:21;21.30;99.90
10419;DHT22;5256;48.728;9.140;2022-09-14T13:01:03;20.90;99.90
10419;DHT22;5256;48.728;9.140;2022-09-14T13:03:47;20.60;99.90
10419;DHT22;5256;48.728;9.140;2022-09-14T13:06:14;20.30;99.90
10419;DHT22;5256;48.728;9.140;2022-09-14T13:08:47;20.20;99.90
10419;DHT22;5256;48.728;9.140;2022-09-14T13:11:29;20.10;99.90
10419;DHT22;5256;48.728;9.140;2022-09-14T13:13:55;20.00;99.90
10419;DHT22;5256;48.728;9.140;2022-09-14T13:16:33;19.90;99.90
10419;DHT22;5256;48.728;9.140;2022-09-14T13:19:02;19.70;99.90
10419;DHT22;5256;48.728;9.140;2022-09-14T13:21:29;19.60;99.90
10419;DHT22;5256;48.728;9.140;2022-09-14T13:23:55;19.60;99.90
10419;DHT22;5256;48.728;9.140;2022-09-14T13:26:29;19.60;99.90
10419;DHT22;5256;48.728;9.140;2022-09-14T13:28:59;19.50;99.90
10419;DHT22;5256;48.728;9.140;2022-09-14T13:31:36;19.50;99.90
10419;DHT22;5256;48.728;9.140;2022-09-14T13:34:03;19.50;99.90
10419;DHT22;5256;48.728;9.140;2022-09-14T13:36:41;19.50;99.90
10419;DHT22;5256;48.728;9.140;2022-09-14T13:39:29;19.50;99.90
10419;DHT22;5256;48.728;9.140;2022-09-14T13:41:56;19.50;99.90
10419;DHT22;5256;48.728;9.140;2022-09-14T13:44:31;19.60;99.90
10419;DHT22;5256;48.728;9.140;2022-09-14T13:46:58;19.60;99.90
10419;DHT22;5256;48.728;9.140;2022-09-14T13:49:25;19.60;99.90
10419;DHT22;5256;48.728;9.140;2022-09-14T13:51:51;19.60;99.90
10419;DHT22;5256;48.728;9.140;2022-09-14T13:54:28;19.70;99.90
10419;DHT22;5256;48.728;9.140;2022-09-14T13:57:18;19.70;99.90
10419;DHT22;5256;48.728;9.140;2022-09-14T14:00:18;19.70;99.90
10419;DHT22;5256;48.728;9.140;2022-09-14T14:02:49;19.60;99.90
10419;DHT22;5256;48.728;9.140;2022-09-14T14:07:51;19.60;99.90
10419;DHT22;5256;48.728;9.140;2022-09-14T14:10:38;19.70;99.90
10419;DHT22;5256;48.728;9.140;2022-09-14T14:13:05;19.70;99.90
10419;DHT22;5256;48.728;9.140;2022-09-14T14:18:28;19.70;99.90
10419;DHT22;5256;48.728;9.140;2022-09-14T14:21:03;19.70;99.90
10419;DHT22;5256;48.728;9.140;2022-09-14T14:23:29;19.80;99.90
10419;DHT22;5256;48.728;9.140;2022-09-14T14:26:06;19.80;99.90
10419;DHT22;5256;48.728;9.140;2022-09-14T14:28:32;19.90;99.90
10419;DHT22;5256;48.728;9.140;2022-09-14T14:30:59;19.90;99.90
10419;DHT22;5256;48.728;9.140;2022-09-14T14:33:27;19.90;99.90
10419;DHT22;5256;48.728;9.140;2022-09-14T14:35:54;19.90;99.90
10419;DHT22;5256;48.728;9.140;2022-09-14T14:38:22;19.90;99.90
10419;DHT22;5256;48.728;9.140;2022-09-14T14:40:48;19.90;99.90
10419;DHT22;5256;48.728;9.140;2022-09-14T14:43:19;19.80;99.90
10419;DHT22;5256;48.728;9.140;2022-09-14T14:45:46;19.70;99.90
10419;DHT22;5256;48.728;9.140;2022-09-14T14:48:12;19.60;99.90
10419;DHT22;5256;48.728;9.140;2022-09-14T14:50:38;19.50;99.90
10419;DHT22;5256;48.728;9.140;2022-09-14T14:53:04;19.40;99.90
10419;DHT22;5256;48.728;9.140;2022-09-14T14:55:31;19.30;99.90
10419;DHT22;5256;48.728;9.140;2022-09-14T14:58:02;19.10;99.90
10419;DHT22;5256;48.728;9.140;2022-09-14T15:00:30;18.90;99.90
10419;DHT22;5256;48.728;9.140;2022-09-14T15:02:56;18.80;99.90
10419;DHT22;5256;48.728;9.140;2022-09-14T15:05:22;18.70;99.90
10419;DHT22;5256;48.728;9.140;2022-09-14T15:07:48;18.60;99.90
10419;DHT22;5256;48.728;9.140;2022-09-14T15:10:17;18.60;99.90
10419;DHT22;5256;48.728;9.140;2022-09-14T15:12:43;18.60;99.90
10419;DHT22;5256;48.728;9.140;2022-09-14T15:15:21;18.60;99.90
10419;DHT22;5256;48.728;9.140;2022-09-14T15:17:48;18.60;99.90
10419;DHT22;5256;48.728;9.140;2022-09-14T15:20:14;18.60;99.90
10419;DHT22;5256;48.728;9.140;2022-09-14T15:22:40;18.50;99.90
10419;DHT22;5256;48.728;9.140;2022-09-14T15:25:09;18.40;99.90
10419;DHT22;5256;48.728;9.140;2022-09-14T15:27:36;18.50;99.90
10419;DHT22;5256;48.728;9.140;2022-09-14T15:30:02;18.60;99.90
10419;DHT22;5256;48.728;9.140;2022-09-14T15:32:28;18.80;99.90
10419;DHT22;5256;48.728;9.140;2022-09-14T15:34:55;18.90;99.90
10419;DHT22;5256;48.728;9.140;2022-09-14T15:37:20;19.10;99.90
10419;DHT22;5256;48.728;9.140;2022-09-14T15:39:46;19.20;99.90
10419;DHT22;5256;48.728;9.140;2022-09-14T15:42:17;19.30;99.90
10419;DHT22;5256;48.728;9.140;2022-09-14T15:44:43;19.40;99.90
10419;DHT22;5256;48.728;9.140;2022-09-14T15:47:10;19.50;99.90
10419;DHT22;5256;48.728;9.140;2022-09-14T15:49:35;19.60;99.90
10419;DHT22;5256;48.728;9.140;2022-09-14T15:52:01;19.60;99.90
10419;DHT22;5256;48.728;9.140;2022-09-14T15:54:32;19.60;99.90
10419;DHT22;5256;48.728;9.140;2022-09-14T15:56:58;19.50;99.90
10419;DHT22;5256;48.728;9.140;2022-09-14T15:59:25;19.40;99.90
10419;DHT22;5256;48.728;9.140;2022-09-14T16:01:51;19.40;99.90
10419;DHT22;5256;48.728;9.140;2022-09-14T16:04:17;19.40;99.90
10419;DHT22;5256;48.728;9.140;2022-09-14T16:06:43;19.30;99.90
10419;DHT22;5256;48.728;9.140;2022-09-14T16:09:10;19.20;99.90
10419;DHT22;5256;48.728;9.140;2022-09-14T16:11:37;19.10;99.90
10419;DHT22;5256;48.728;9.140;2022-09-14T16:14:04;18.90;99.90
10419;DHT22;5256;48.728;9.140;2022-09-14T16:16:30;18.90;99.90
10419;DHT22;5256;48.728;9.140;2022-09-14T16:18:56;18.70;99.90
10419;DHT22;5256;48.728;9.140;2022-09-14T16:21:24;18.60;99.90
10419;DHT22;5256;48.728;9.140;2022-09-14T16:23:52;18.50;99.90
10419;DHT22;5256;48.728;9.140;2022-09-14T16:26:22;18.40;99.90
10419;DHT22;5256;48.728;9.140;2022-09-14T16:28:49;18.40;99.90
10419;DHT22;5256;48.728;9.140;2022-09-14T16:31:27;18.40;99.90
10419;DHT22;5256;48.728;9.140;2022-09-14T16:33:54;18.30;99.90
10419;DHT22;5256;48.728;9.140;2022-09-14T16:36:22;18.40;99.90
10419;DHT22;5256;48.728;9.140;2022-09-14T16:38:50;18.40;99.90
10419;DHT22;5256;48.728;9.140;2022-09-14T16:41:16;18.50;99.90
10419;DHT22;5256;48.728;9.140;2022-09-14T16:43:42;18.50;99.90
10419;DHT22;5256;48.728;9.140;2022-09-14T16:46:10;18.60;99.90
10419;DHT22;5256;48.728;9.140;2022-09-14T16:48:39;18.60;99.90
10419;DHT22;5256;48.728;9.140;2022-09-14T16:51:05;18.60;99.90
10419;DHT22;5256;48.728;9.140;2022-09-14T16:53:32;18.70;99.90
10419;DHT22;5256;48.728;9.140;2022-09-14T16:56:00;18.70;99.90
10419;DHT22;5256;48.728;9.140;2022-09-14T16:58:26;18.60;99.90
10419;DHT22;5256;48.728;9.140;2022-09-14T17:00:51;18.60;99.90
10419;DHT22;5256;48.728;9.140;2022-09-14T17:03:17;18.60;99.90
10419;DHT22;5256;48.728;9.140;2022-09-14T17:05:42;18.50;99.90
10419;DHT22;5256;48.728;9.140;2022-09-14T17:08:08;18.40;99.90
10419;DHT22;5256;48.728;9.140;2022-09-14T17:10:34;18.40;99.90
10419;DHT22;5256;48.728;9.140;2022-09-14T17:12:59;18.30;99.90
10419;DHT22;5256;48.728;9.140;2022-09-14T17:15:25;18.30;99.90
10419;DHT22;5256;48.728;9.140;2022-09-14T17:17:50;18.30;99.90
10419;DHT22;5256;48.728;9.140;2022-09-14T17:20:16;18.20;99.90
10419;DHT22;5256;48.728;9.140;2022-09-14T17:22:42;18.20;99.90
10419;DHT22;5256;48.728;9.140;2022-09-14T17:25:08;18.20;99.90
10419;DHT22;5256;48.728;9.140;2022-09-14T17:27:33;18.20;99.90
10419;DHT22;5256;48.728;9.140;2022-09-14T17:29:59;18.20;99.90
10419;DHT22;5256;48.728;9.140;2022-09-14T17:32:25;18.20;99.90
10419;DHT22;5256;48.728;9.140;2022-09-14T17:34:50;18.10;99.90
10419;DHT22;5256;48.728;9.140;2022-09-14T17:37:17;18.10;99.90
10419;DHT22;5256;48.728;9.140;2022-09-14T17:39:42;18.10;99.90
10419;DHT22;5256;48.728;9.140;2022-09-14T17:42:08;18.10;99.90
10419;DHT22;5256;48.728;9.140;2022-09-14T17:44:34;18.10;99.90
10419;DHT22;5256;48.728;9.140;2022-09-14T17:47:00;18.00;99.90
10419;DHT22;5256;48.728;9.140;2022-09-14T17:49:25;18.00;99.90
10419;DHT22;5256;48.728;9.140;2022-09-14T17:51:51;18.00;99.90
10419;DHT22;5256;48.728;9.140;2022-09-14T17:54:17;18.00;99.90
10419;DHT22;5256;48.728;9.140;2022-09-14T17:56:42;18.00;99.90
10419;DHT22;5256;48.728;9.140;2022-09-14T17:59:11;18.00;99.90
10419;DHT22;5256;48.728;9.140;2022-09-14T18:01:37;18.00;99.90
10419;DHT22;5256;48.728;9.140;2022-09-14T18:04:05;18.00;99.90